sensor_id;sensor_type;location;lat;lon;timestamp;temperature;humidity
25360;DHT22;13311;51.386;0.016;2023-06-26T00:00:15;22.90;62.80
25360;DHT22;13311;51.386;0.016;2023-06-26T00:05:16;22.80;63.50
25360;DHT22;13311;51.386;0.016;2023-06-26T00:10:16;22.70;63.90
25360;DHT22;13311;51.386;0.016;2023-06-26T00:15:17;22.70;64.50
25360;DHT22;13311;51.386;0.016;2023-06-26T00:20:18;22.70;64.80
25360;DHT22;13311;51.386;0.016;2023-06-26T00:25:19;22.50;65.40
25360;DHT22;13311;51.386;0.016;2023-06-26T00:30:20;22.50;65.90
25360;DHT22;13311;51.386;0.016;2023-06-26T00:35:20;22.40;66.00
25360;DHT22;13311;51.386;0.016;2023-06-26T00:40:21;22.40;66.40
25360;DHT22;13311;51.386;0.016;2023-06-26T00:45:22;22.30;67.50
25360;DHT22;13311;51.386;0.016;2023-06-26T00:50:23;22.10;67.50
25360;DHT22;13311;51.386;0.016;2023-06-26T00:55:24;22.10;68.00
25360;DHT22;13311;51.386;0.016;2023-06-26T01:00:24;22.00;68.50
25360;DHT22;13311;51.386;0.016;2023-06-26T01:05:27;21.90;68.50
25360;DHT22;13311;51.386;0.016;2023-06-26T01:10:28;21.90;69.10
25360;DHT22;13311;51.386;0.016;2023-06-26T01:15:29;21.90;69.20
25360;DHT22;13311;51.386;0.016;2023-06-26T01:20:31;21.80;69.60
25360;DHT22;13311;51.386;0.016;2023-06-26T01:30:44;21.70;70.20
25360;DHT22;13311;51.386;0.016;2023-06-26T01:35:45;21.70;70.50
25360;DHT22;13311;51.386;0.016;2023-06-26T01:40:46;21.60;70.40
25360;DHT22;13311;51.386;0.016;2023-06-26T01:45:50;21.50;71.30
25360;DHT22;13311;51.386;0.016;2023-06-26T01:50:53;21.40;71.70
25360;DHT22;13311;51.386;0.016;2023-06-26T01:55:59;21.40;71.70
25360;DHT22;13311;51.386;0.016;2023-06-26T02:01:01;21.40;71.70
25360;DHT22;13311;51.386;0.016;2023-06-26T02:06:02;21.20;72.60
25360;DHT22;13311;51.386;0.016;2023-06-26T02:11:03;21.20;72.60
25360;DHT22;13311;51.386;0.016;2023-06-26T02:16:04;21.20;72.90
25360;DHT22;13311;51.386;0.016;2023-06-26T02:21:06;21.10;73.60
25360;DHT22;13311;51.386;0.016;2023-06-26T02:26:07;21.00;73.90
25360;DHT22;13311;51.386;0.016;2023-06-26T02:31:07;21.00;74.20
25360;DHT22;13311;51.386;0.016;2023-06-26T02:36:08;20.90;74.60
25360;DHT22;13311;51.386;0.016;2023-06-26T02:41:09;20.90;74.90
25360;DHT22;13311;51.386;0.016;2023-06-26T02:46:10;20.80;75.30
25360;DHT22;13311;51.386;0.016;2023-06-26T02:51:11;20.70;75.40
25360;DHT22;13311;51.386;0.016;2023-06-26T02:56:12;20.70;75.70
25360;DHT22;13311;51.386;0.016;2023-06-26T03:01:12;20.70;75.90
25360;DHT22;13311;51.386;0.016;2023-06-26T03:06:14;20.60;76.40
25360;DHT22;13311;51.386;0.016;2023-06-26T03:11:15;20.50;76.90
25360;DHT22;13311;51.386;0.016;2023-06-26T03:16:15;20.50;77.00
25360;DHT22;13311;51.386;0.016;2023-06-26T03:21:17;20.40;77.30
25360;DHT22;13311;51.386;0.016;2023-06-26T03:26:17;20.30;77.70
25360;DHT22;13311;51.386;0.016;2023-06-26T03:31:18;20.20;78.60
25360;DHT22;13311;51.386;0.016;2023-06-26T03:36:19;20.20;78.90
25360;DHT22;13311;51.386;0.016;2023-06-26T03:41:20;20.10;79.20
25360;DHT22;13311;51.386;0.016;2023-06-26T03:46:21;20.10;79.70
25360;DHT22;13311;51.386;0.016;2023-06-26T03:51:21;20.00;80.10
25360;DHT22;13311;51.386;0.016;2023-06-26T03:56:22;19.90;80.40
25360;DHT22;13311;51.386;0.016;2023-06-26T04:01:23;19.90;81.00
25360;DHT22;13311;51.386;0.016;2023-06-26T04:06:24;19.90;81.50
25360;DHT22;13311;51.386;0.016;2023-06-26T04:11:25;19.90;81.50
25360;DHT22;13311;51.386;0.016;2023-06-26T04:16:26;19.90;81.30
25360;DHT22;13311;51.386;0.016;2023-06-26T04:21:26;19.90;81.60
25360;DHT22;13311;51.386;0.016;2023-06-26T04:26:27;19.90;81.80
25360;DHT22;13311;51.386;0.016;2023-06-26T04:31:28;19.90;82.00
25360;DHT22;13311;51.386;0.016;2023-06-26T04:36:29;20.00;81.80
25360;DHT22;13311;51.386;0.016;2023-06-26T04:41:29;20.20;80.30
25360;DHT22;13311;51.386;0.016;2023-06-26T04:46:30;20.30;80.50
25360;DHT22;13311;51.386;0.016;2023-06-26T04:51:31;20.30;80.70
25360;DHT22;13311;51.386;0.016;2023-06-26T04:56:31;20.50;81.80
25360;DHT22;13311;51.386;0.016;2023-06-26T05:01:32;21.30;80.00
25360;DHT22;13311;51.386;0.016;2023-06-26T05:06:33;22.10;78.00
25360;DHT22;13311;51.386;0.016;2023-06-26T05:11:33;23.10;74.60
25360;DHT22;13311;51.386;0.016;2023-06-26T05:16:34;23.90;72.30
25360;DHT22;13311;51.386;0.016;2023-06-26T05:21:35;24.80;68.90
25360;DHT22;13311;51.386;0.016;2023-06-26T05:26:36;25.40;65.80
25360;DHT22;13311;51.386;0.016;2023-06-26T05:31:41;25.90;64.90
25360;DHT22;13311;51.386;0.016;2023-06-26T05:36:42;26.40;63.40
25360;DHT22;13311;51.386;0.016;2023-06-26T05:41:46;26.90;62.10
25360;DHT22;13311;51.386;0.016;2023-06-26T05:46:47;27.40;59.90
25360;DHT22;13311;51.386;0.016;2023-06-26T05:51:48;27.90;58.00
25360;DHT22;13311;51.386;0.016;2023-06-26T05:56:51;28.30;55.90
25360;DHT22;13311;51.386;0.016;2023-06-26T06:01:53;28.70;57.10
25360;DHT22;13311;51.386;0.016;2023-06-26T06:06:54;29.10;56.40
25360;DHT22;13311;51.386;0.016;2023-06-26T06:11:55;29.30;55.50
25360;DHT22;13311;51.386;0.016;2023-06-26T06:16:56;29.50;55.10
25360;DHT22;13311;51.386;0.016;2023-06-26T06:21:56;29.70;54.20
25360;DHT22;13311;51.386;0.016;2023-06-26T06:26:57;29.80;54.30
25360;DHT22;13311;51.386;0.016;2023-06-26T06:31:58;30.00;53.80
25360;DHT22;13311;51.386;0.016;2023-06-26T06:36:58;30.20;52.40
25360;DHT22;13311;51.386;0.016;2023-06-26T06:41:59;29.80;52.40
25360;DHT22;13311;51.386;0.016;2023-06-26T06:47:00;29.30;53.60
25360;DHT22;13311;51.386;0.016;2023-06-26T06:52:01;28.70;55.20
25360;DHT22;13311;51.386;0.016;2023-06-26T06:57:01;28.80;55.30
25360;DHT22;13311;51.386;0.016;2023-06-26T07:02:03;28.90;55.70
25360;DHT22;13311;51.386;0.016;2023-06-26T07:07:04;29.30;54.50
25360;DHT22;13311;51.386;0.016;2023-06-26T07:12:05;29.50;54.40
25360;DHT22;13311;51.386;0.016;2023-06-26T07:17:06;29.70;53.80
25360;DHT22;13311;51.386;0.016;2023-06-26T07:22:07;29.80;53.50
25360;DHT22;13311;51.386;0.016;2023-06-26T07:27:07;29.90;53.40
25360;DHT22;13311;51.386;0.016;2023-06-26T07:32:08;29.90;53.30
25360;DHT22;13311;51.386;0.016;2023-06-26T07:37:09;29.80;53.30
25360;DHT22;13311;51.386;0.016;2023-06-26T07:42:10;29.60;53.60
25360;DHT22;13311;51.386;0.016;2023-06-26T07:47:11;29.20;54.40
25360;DHT22;13311;51.386;0.016;2023-06-26T07:52:11;28.80;54.80
25360;DHT22;13311;51.386;0.016;2023-06-26T07:57:12;28.70;55.60
25360;DHT22;13311;51.386;0.016;2023-06-26T08:02:13;28.50;55.90
25360;DHT22;13311;51.386;0.016;2023-06-26T08:07:14;28.60;55.90
25360;DHT22;13311;51.386;0.016;2023-06-26T08:12:14;28.70;55.90
25360;DHT22;13311;51.386;0.016;2023-06-26T08:17:15;28.50;56.10
25360;DHT22;13311;51.386;0.016;2023-06-26T08:22:16;28.50;56.90
25360;DHT22;13311;51.386;0.016;2023-06-26T08:27:17;28.40;56.30
25360;DHT22;13311;51.386;0.016;2023-06-26T08:32:17;28.40;56.00
25360;DHT22;13311;51.386;0.016;2023-06-26T08:37:18;28.20;56.70
25360;DHT22;13311;51.386;0.016;2023-06-26T08:42:19;28.20;57.10
25360;DHT22;13311;51.386;0.016;2023-06-26T08:47:20;27.80;57.60
25360;DHT22;13311;51.386;0.016;2023-06-26T08:52:23;27.70;57.50
25360;DHT22;13311;51.386;0.016;2023-06-26T08:57:26;27.60;57.80
25360;DHT22;13311;51.386;0.016;2023-06-26T09:02:27;27.70;57.40
25360;DHT22;13311;51.386;0.016;2023-06-26T09:07:28;27.70;56.90
25360;DHT22;13311;51.386;0.016;2023-06-26T09:12:29;27.80;56.60
25360;DHT22;13311;51.386;0.016;2023-06-26T09:17:34;27.80;54.00
25360;DHT22;13311;51.386;0.016;2023-06-26T09:22:42;27.90;55.50
25360;DHT22;13311;51.386;0.016;2023-06-26T09:27:43;28.00;56.10
25360;DHT22;13311;51.386;0.016;2023-06-26T09:32:44;28.20;54.40
25360;DHT22;13311;51.386;0.016;2023-06-26T09:37:45;28.30;54.20
25360;DHT22;13311;51.386;0.016;2023-06-26T09:42:46;28.30;53.20
25360;DHT22;13311;51.386;0.016;2023-06-26T09:47:46;28.50;54.70
25360;DHT22;13311;51.386;0.016;2023-06-26T09:52:47;28.70;54.10
25360;DHT22;13311;51.386;0.016;2023-06-26T09:57:50;28.80;52.20
25360;DHT22;13311;51.386;0.016;2023-06-26T10:02:51;28.90;53.50
25360;DHT22;13311;51.386;0.016;2023-06-26T10:07:53;28.80;53.50
25360;DHT22;13311;51.386;0.016;2023-06-26T10:12:59;28.70;52.40
25360;DHT22;13311;51.386;0.016;2023-06-26T10:18:03;28.60;52.10
25360;DHT22;13311;51.386;0.016;2023-06-26T10:23:05;28.70;50.70
25360;DHT22;13311;51.386;0.016;2023-06-26T10:28:08;28.80;52.70
25360;DHT22;13311;51.386;0.016;2023-06-26T10:33:10;28.80;50.70
25360;DHT22;13311;51.386;0.016;2023-06-26T10:38:12;28.80;51.60
25360;DHT22;13311;51.386;0.016;2023-06-26T10:43:14;28.50;52.00
25360;DHT22;13311;51.386;0.016;2023-06-26T10:48:15;28.40;52.60
25360;DHT22;13311;51.386;0.016;2023-06-26T11:03:49;28.20;51.70
25360;DHT22;13311;51.386;0.016;2023-06-26T11:14:06;28.30;53.10
25360;DHT22;13311;51.386;0.016;2023-06-26T11:19:12;28.30;52.70
25360;DHT22;13311;51.386;0.016;2023-06-26T11:24:13;28.30;52.70
25360;DHT22;13311;51.386;0.016;2023-06-26T11:29:14;28.50;52.00
25360;DHT22;13311;51.386;0.016;2023-06-26T11:34:15;28.60;52.20
25360;DHT22;13311;51.386;0.016;2023-06-26T11:39:16;28.60;51.30
25360;DHT22;13311;51.386;0.016;2023-06-26T11:44:16;28.90;49.50
25360;DHT22;13311;51.386;0.016;2023-06-26T11:49:21;28.90;50.80
25360;DHT22;13311;51.386;0.016;2023-06-26T11:54:25;28.70;50.30
25360;DHT22;13311;51.386;0.016;2023-06-26T11:59:37;28.70;48.90
25360;DHT22;13311;51.386;0.016;2023-06-26T12:04:42;28.60;50.40
25360;DHT22;13311;51.386;0.016;2023-06-26T12:09:46;28.60;46.10
25360;DHT22;13311;51.386;0.016;2023-06-26T12:14:48;28.80;47.90
25360;DHT22;13311;51.386;0.016;2023-06-26T12:19:48;28.70;49.40
25360;DHT22;13311;51.386;0.016;2023-06-26T12:24:50;28.70;49.90
25360;DHT22;13311;51.386;0.016;2023-06-26T12:29:52;28.90;48.40
25360;DHT22;13311;51.386;0.016;2023-06-26T12:34:56;29.00;48.80
25360;DHT22;13311;51.386;0.016;2023-06-26T12:39:57;29.00;49.00
25360;DHT22;13311;51.386;0.016;2023-06-26T12:44:58;29.00;49.40
25360;DHT22;13311;51.386;0.016;2023-06-26T12:50:05;28.90;47.70
25360;DHT22;13311;51.386;0.016;2023-06-26T12:55:06;29.00;48.40
25360;DHT22;13311;51.386;0.016;2023-06-26T13:00:08;29.10;46.80
25360;DHT22;13311;51.386;0.016;2023-06-26T13:05:10;29.00;46.70
25360;DHT22;13311;51.386;0.016;2023-06-26T13:10:11;29.00;46.30
25360;DHT22;13311;51.386;0.016;2023-06-26T13:15:12;29.00;48.10
25360;DHT22;13311;51.386;0.016;2023-06-26T13:20:13;29.00;48.70
25360;DHT22;13311;51.386;0.016;2023-06-26T13:25:14;29.00;48.00
25360;DHT22;13311;51.386;0.016;2023-06-26T13:30:15;29.00;48.10
25360;DHT22;13311;51.386;0.016;2023-06-26T13:35:16;29.10;47.20
25360;DHT22;13311;51.386;0.016;2023-06-26T13:40:17;29.20;47.50
25360;DHT22;13311;51.386;0.016;2023-06-26T13:45:18;29.10;49.10
25360;DHT22;13311;51.386;0.016;2023-06-26T13:50:18;29.00;49.30
25360;DHT22;13311;51.386;0.016;2023-06-26T13:55:19;28.80;45.90
25360;DHT22;13311;51.386;0.016;2023-06-26T14:00:23;28.90;48.10
25360;DHT22;13311;51.386;0.016;2023-06-26T14:05:23;28.70;48.50
25360;DHT22;13311;51.386;0.016;2023-06-26T14:10:24;28.70;49.00
25360;DHT22;13311;51.386;0.016;2023-06-26T14:15:25;28.80;49.50
25360;DHT22;13311;51.386;0.016;2023-06-26T14:20:26;28.80;48.70
25360;DHT22;13311;51.386;0.016;2023-06-26T14:25:28;28.80;49.30
25360;DHT22;13311;51.386;0.016;2023-06-26T14:30:28;28.80;49.00
25360;DHT22;13311;51.386;0.016;2023-06-26T14:35:29;28.70;47.70
25360;DHT22;13311;51.386;0.016;2023-06-26T14:40:30;28.60;48.40
25360;DHT22;13311;51.386;0.016;2023-06-26T14:45:30;28.50;47.20
25360;DHT22;13311;51.386;0.016;2023-06-26T14:50:31;28.50;49.30
25360;DHT22;13311;51.386;0.016;2023-06-26T14:55:32;28.50;48.00
25360;DHT22;13311;51.386;0.016;2023-06-26T15:00:32;28.60;48.60
25360;DHT22;13311;51.386;0.016;2023-06-26T15:05:33;28.60;49.20
25360;DHT22;13311;51.386;0.016;2023-06-26T15:10:34;28.70;49.30
25360;DHT22;13311;51.386;0.016;2023-06-26T15:15:34;28.70;48.80
25360;DHT22;13311;51.386;0.016;2023-06-26T15:20:35;28.40;48.80
25360;DHT22;13311;51.386;0.016;2023-06-26T15:25:36;28.40;49.70
25360;DHT22;13311;51.386;0.016;2023-06-26T15:30:37;28.40;47.80
25360;DHT22;13311;51.386;0.016;2023-06-26T15:35:37;28.40;49.50
25360;DHT22;13311;51.386;0.016;2023-06-26T15:40:38;28.50;49.30
25360;DHT22;13311;51.386;0.016;2023-06-26T15:45:39;28.60;49.20
25360;DHT22;13311;51.386;0.016;2023-06-26T15:50:40;28.50;49.10
25360;DHT22;13311;51.386;0.016;2023-06-26T15:55:40;28.50;49.40
25360;DHT22;13311;51.386;0.016;2023-06-26T16:00:41;28.50;49.20
25360;DHT22;13311;51.386;0.016;2023-06-26T16:05:42;28.40;48.70
25360;DHT22;13311;51.386;0.016;2023-06-26T16:10:42;28.40;49.30
25360;DHT22;13311;51.386;0.016;2023-06-26T16:15:43;28.40;48.80
25360;DHT22;13311;51.386;0.016;2023-06-26T16:20:44;28.40;48.40
25360;DHT22;13311;51.386;0.016;2023-06-26T16:25:45;28.40;48.50
25360;DHT22;13311;51.386;0.016;2023-06-26T16:30:47;28.50;49.00
25360;DHT22;13311;51.386;0.016;2023-06-26T16:35:48;28.40;47.10
25360;DHT22;13311;51.386;0.016;2023-06-26T16:40:48;28.30;48.20
25360;DHT22;13311;51.386;0.016;2023-06-26T16:45:49;28.30;47.10
25360;DHT22;13311;51.386;0.016;2023-06-26T16:50:50;28.40;47.70
25360;DHT22;13311;51.386;0.016;2023-06-26T16:55:51;28.40;48.20
25360;DHT22;13311;51.386;0.016;2023-06-26T17:00:52;28.30;47.10
25360;DHT22;13311;51.386;0.016;2023-06-26T17:05:52;28.30;48.00
25360;DHT22;13311;51.386;0.016;2023-06-26T17:10:53;28.30;47.70
25360;DHT22;13311;51.386;0.016;2023-06-26T17:15:54;28.40;48.20
25360;DHT22;13311;51.386;0.016;2023-06-26T17:20:55;28.40;47.50
25360;DHT22;13311;51.386;0.016;2023-06-26T17:25:55;28.50;47.60
25360;DHT22;13311;51.386;0.016;2023-06-26T17:30:59;28.50;49.10
25360;DHT22;13311;51.386;0.016;2023-06-26T17:36:00;28.30;48.20
25360;DHT22;13311;51.386;0.016;2023-06-26T17:41:00;28.30;48.30
25360;DHT22;13311;51.386;0.016;2023-06-26T17:46:01;28.30;47.90
25360;DHT22;13311;51.386;0.016;2023-06-26T17:51:02;28.30;48.50
25360;DHT22;13311;51.386;0.016;2023-06-26T17:56:04;28.20;47.90
25360;DHT22;13311;51.386;0.016;2023-06-26T18:01:05;28.10;46.60
25360;DHT22;13311;51.386;0.016;2023-06-26T18:06:06;28.10;46.20
25360;DHT22;13311;51.386;0.016;2023-06-26T18:11:06;28.00;48.80
25360;DHT22;13311;51.386;0.016;2023-06-26T18:16:07;28.00;49.40
25360;DHT22;13311;51.386;0.016;2023-06-26T18:21:09;28.00;48.80
25360;DHT22;13311;51.386;0.016;2023-06-26T18:26:10;27.80;46.70
25360;DHT22;13311;51.386;0.016;2023-06-26T18:31:10;27.80;47.90
25360;DHT22;13311;51.386;0.016;2023-06-26T18:36:11;27.80;49.50
25360;DHT22;13311;51.386;0.016;2023-06-26T18:41:15;27.70;48.40
25360;DHT22;13311;51.386;0.016;2023-06-26T18:46:16;27.60;49.20
25360;DHT22;13311;51.386;0.016;2023-06-26T18:51:16;27.50;49.60
25360;DHT22;13311;51.386;0.016;2023-06-26T18:56:17;27.40;49.20
25360;DHT22;13311;51.386;0.016;2023-06-26T19:01:19;27.30;48.50
25360;DHT22;13311;51.386;0.016;2023-06-26T19:06:21;27.20;47.80
25360;DHT22;13311;51.386;0.016;2023-06-26T19:11:23;27.00;47.90
25360;DHT22;13311;51.386;0.016;2023-06-26T19:16:24;27.10;50.70
25360;DHT22;13311;51.386;0.016;2023-06-26T19:21:25;26.90;47.80
25360;DHT22;13311;51.386;0.016;2023-06-26T19:26:28;26.80;50.20
25360;DHT22;13311;51.386;0.016;2023-06-26T19:31:29;26.90;50.10
25360;DHT22;13311;51.386;0.016;2023-06-26T19:36:30;26.70;49.00
25360;DHT22;13311;51.386;0.016;2023-06-26T19:41:30;26.70;48.80
25360;DHT22;13311;51.386;0.016;2023-06-26T19:46:31;26.60;49.20
25360;DHT22;13311;51.386;0.016;2023-06-26T19:51:32;26.70;50.00
25360;DHT22;13311;51.386;0.016;2023-06-26T19:56:32;26.50;49.60
25360;DHT22;13311;51.386;0.016;2023-06-26T20:01:33;26.40;49.20
25360;DHT22;13311;51.386;0.016;2023-06-26T20:06:37;26.30;49.80
25360;DHT22;13311;51.386;0.016;2023-06-26T20:11:38;26.20;49.80
25360;DHT22;13311;51.386;0.016;2023-06-26T20:16:39;26.10;49.50
25360;DHT22;13311;51.386;0.016;2023-06-26T20:21:40;26.00;49.90
25360;DHT22;13311;51.386;0.016;2023-06-26T20:26:42;26.00;50.60
25360;DHT22;13311;51.386;0.016;2023-06-26T20:31:44;25.90;49.90
25360;DHT22;13311;51.386;0.016;2023-06-26T20:36:44;25.80;50.40
25360;DHT22;13311;51.386;0.016;2023-06-26T20:41:45;25.80;50.30
25360;DHT22;13311;51.386;0.016;2023-06-26T20:46:46;25.80;50.00
25360;DHT22;13311;51.386;0.016;2023-06-26T20:51:56;25.70;50.80
25360;DHT22;13311;51.386;0.016;2023-06-26T20:56:57;25.50;50.40
25360;DHT22;13311;51.386;0.016;2023-06-26T21:01:57;25.50;50.20
25360;DHT22;13311;51.386;0.016;2023-06-26T21:06:58;25.40;50.20
25360;DHT22;13311;51.386;0.016;2023-06-26T21:11:59;25.40;50.60
25360;DHT22;13311;51.386;0.016;2023-06-26T21:17:02;25.30;50.70
25360;DHT22;13311;51.386;0.016;2023-06-26T21:22:02;25.10;50.50
25360;DHT22;13311;51.386;0.016;2023-06-26T21:27:04;24.90;50.70
25360;DHT22;13311;51.386;0.016;2023-06-26T21:32:05;24.80;50.50
25360;DHT22;13311;51.386;0.016;2023-06-26T21:37:06;24.80;50.50
25360;DHT22;13311;51.386;0.016;2023-06-26T21:42:08;24.70;50.60
25360;DHT22;13311;51.386;0.016;2023-06-26T21:47:09;24.70;50.40
25360;DHT22;13311;51.386;0.016;2023-06-26T21:52:10;24.60;51.00
25360;DHT22;13311;51.386;0.016;2023-06-26T21:57:11;24.60;50.80
25360;DHT22;13311;51.386;0.016;2023-06-26T22:02:12;24.50;51.10
25360;DHT22;13311;51.386;0.016;2023-06-26T22:07:13;24.40;51.20
25360;DHT22;13311;51.386;0.016;2023-06-26T22:12:14;24.30;51.30
25360;DHT22;13311;51.386;0.016;2023-06-26T22:17:14;24.30;51.40
25360;DHT22;13311;51.386;0.016;2023-06-26T22:22:15;24.10;51.70
25360;DHT22;13311;51.386;0.016;2023-06-26T22:27:16;23.90;52.20
25360;DHT22;13311;51.386;0.016;2023-06-26T22:32:16;23.60;52.80
25360;DHT22;13311;51.386;0.016;2023-06-26T22:37:17;23.40;53.50
25360;DHT22;13311;51.386;0.016;2023-06-26T22:42:18;23.10;54.00
25360;DHT22;13311;51.386;0.016;2023-06-26T22:47:18;22.90;54.40
25360;DHT22;13311;51.386;0.016;2023-06-26T22:52:19;22.70;54.90
25360;DHT22;13311;51.386;0.016;2023-06-26T22:57:20;22.50;55.70
25360;DHT22;13311;51.386;0.016;2023-06-26T23:02:21;22.40;56.30
25360;DHT22;13311;51.386;0.016;2023-06-26T23:07:21;22.30;56.80
25360;DHT22;13311;51.386;0.016;2023-06-26T23:12:22;22.20;57.30
25360;DHT22;13311;51.386;0.016;2023-06-26T23:17:23;22.10;57.70
25360;DHT22;13311;51.386;0.016;2023-06-26T23:22:23;22.00;57.90
25360;DHT22;13311;51.386;0.016;2023-06-26T23:27:24;22.00;58.30
25360;DHT22;13311;51.386;0.016;2023-06-26T23:32:25;21.90;59.40
25360;DHT22;13311;51.386;0.016;2023-06-26T23:37:25;21.80;59.10
25360;DHT22;13311;51.386;0.016;2023-06-26T23:42:26;21.70;59.50
25360;DHT22;13311;51.386;0.016;2023-06-26T23:47:27;21.60;59.90
25360;DHT22;13311;51.386;0.016;2023-06-26T23:52:28;21.50;60.20
25360;DHT22;13311;51.386;0.016;2023-06-26T23:57:29;21.50;60.60
